Time;durP1;ratioP1;P1;durP2;ratioP2;P2;SDS_P1;SDS_P2;PMS_P1;PMS_P2;Temp;Humidity;BMP_temperature;BMP_pressure;BME280_temperature;BME280_humidity;BME280_pressure;Samples;Min_cycle;Max_cycle;Signal;HPM_P1;HPM_P2
2023/10/24 00:01:06;;;;;;;14.10;9.98;;;10.70;99.90;;;;;;4959093;28;88919;-32
2023/10/24 00:03:32;;;;;;;16.38;10.43;;;10.70;99.90;;;;;;4958828;28;90083;-32
2023/10/24 00:05:57;;;;;;;13.88;9.57;;;10.70;99.90;;;;;;4957284;28;91291;-32
2023/10/24 00:08:23;;;;;;;14.07;10.18;;;10.70;99.90;;;;;;4959292;28;90654;-32
2023/10/24 00:10:48;;;;;;;18.70;10.40;;;10.70;99.90;;;;;;4957865;28;88207;-33
2023/10/24 00:13:14;;;;;;;15.45;10.57;;;10.70;99.90;;;;;;4958575;28;90284;-32
2023/10/24 00:15:39;;;;;;;12.02;8.18;;;10.70;99.90;;;;;;4958063;28;90395;-32
2023/10/24 00:18:05;;;;;;;15.32;10.98;;;10.70;99.90;;;;;;4959134;28;90803;-32
2023/10/24 00:20:31;;;;;;;14.57;10.85;;;10.80;99.90;;;;;;4958484;28;89690;-32
2023/10/24 00:22:56;;;;;;;11.70;8.15;;;10.70;99.90;;;;;;4958279;28;90780;-30
2023/10/24 00:25:22;;;;;;;16.77;11.77;;;10.70;99.90;;;;;;4958722;28;89525;-31
2023/10/24 00:27:48;;;;;;;16.10;9.48;;;10.70;99.90;;;;;;4958596;28;89939;-31
2023/10/24 00:30:14;;;;;;;14.77;9.65;;;10.70;99.90;;;;;;4958434;28;88222;-31
2023/10/24 00:32:39;;;;;;;13.52;8.23;;;10.70;99.90;;;;;;4959001;28;89489;-30
2023/10/24 00:35:05;;;;;;;13.63;10.40;;;10.70;99.90;;;;;;4957912;28;89158;-32
2023/10/24 00:37:31;;;;;;;10.50;8.80;;;10.70;99.90;;;;;;4958255;28;89692;-31
2023/10/24 00:39:57;;;;;;;19.92;10.48;;;10.70;99.90;;;;;;4956871;28;90320;-31
2023/10/24 00:42:22;;;;;;;14.85;10.07;;;10.70;99.90;;;;;;4946784;28;89930;-31
2023/10/24 00:44:48;;;;;;;14.15;9.18;;;10.70;99.90;;;;;;4957756;28;90257;-31
2023/10/24 00:47:14;;;;;;;15.88;10.25;;;10.70;99.90;;;;;;4940215;28;89745;-30
2023/10/24 00:49:40;;;;;;;18.70;9.43;;;10.70;99.90;;;;;;4958001;28;90146;-30
2023/10/24 00:52:06;;;;;;;18.20;9.20;;;10.70;99.90;;;;;;4958558;28;89263;-33
2023/10/24 00:54:34;;;;;;;14.90;10.00;;;10.70;99.90;;;;;;4957634;28;90055;-33
2023/10/24 00:57:03;;;;;;;13.50;8.90;;;10.70;99.90;;;;;;4958459;28;89607;-34
2023/10/24 00:59:29;;;;;;;15.48;9.95;;;10.70;99.90;;;;;;4958477;28;89017;-32
2023/10/24 01:01:55;;;;;;;17.83;11.32;;;10.70;99.90;;;;;;4950825;28;91700;-32
2023/10/24 01:04:23;;;;;;;13.95;9.25;;;10.80;99.90;;;;;;4952738;28;90169;-32
2023/10/24 01:06:49;;;;;;;18.08;13.15;;;10.80;99.90;;;;;;4958051;28;90690;-30
2023/10/24 01:09:15;;;;;;;14.15;9.55;;;10.70;99.90;;;;;;4958342;28;89170;-31
2023/10/24 01:11:40;;;;;;;17.08;7.80;;;10.70;99.90;;;;;;4958048;28;90708;-31
2023/10/24 01:14:06;;;;;;;15.55;9.43;;;10.80;99.90;;;;;;4959110;28;90444;-33
2023/10/24 01:16:43;;;;;;;17.85;9.13;;;10.80;99.90;;;;;;4958019;28;89642;-32
2023/10/24 01:19:09;;;;;;;14.25;9.57;;;10.80;99.90;;;;;;4958919;28;88860;-33
2023/10/24 01:21:34;;;;;;;15.05;8.57;;;10.90;99.90;;;;;;4958307;28;90314;-31
2023/10/24 01:24:00;;;;;;;13.70;8.95;;;10.80;99.90;;;;;;4958260;28;89681;-33
2023/10/24 01:26:27;;;;;;;12.93;9.57;;;10.80;99.90;;;;;;4958381;28;89521;-31
2023/10/24 01:28:53;;;;;;;15.82;10.07;;;10.80;99.90;;;;;;4934471;28;89938;-33
2023/10/24 01:31:18;;;;;;;15.98;11.65;;;10.70;99.90;;;;;;4957662;28;90257;-30
2023/10/24 01:33:44;;;;;;;12.10;8.68;;;10.80;99.90;;;;;;4958413;28;89978;-33
2023/10/24 01:36:10;;;;;;;13.38;8.80;;;10.80;99.90;;;;;;4957814;28;89040;-32
2023/10/24 01:38:35;;;;;;;14.68;9.80;;;10.80;99.90;;;;;;4958610;28;88313;-32
2023/10/24 01:41:01;;;;;;;11.10;7.78;;;10.90;99.90;;;;;;4957281;28;91052;-31
2023/10/24 01:43:27;;;;;;;11.50;7.40;;;11.00;99.90;;;;;;4958254;28;89751;-32
2023/10/24 01:45:53;;;;;;;15.77;10.43;;;10.90;99.90;;;;;;4958195;28;89116;-33
2023/10/24 01:48:19;;;;;;;10.05;9.10;;;10.90;99.90;;;;;;4957832;28;89805;-31
2023/10/24 01:50:44;;;;;;;10.90;8.10;;;10.90;99.90;;;;;;4957970;28;90561;-32
2023/10/24 01:53:10;;;;;;;17.42;9.13;;;11.00;99.90;;;;;;4957665;28;90374;-32
2023/10/24 01:55:36;;;;;;;10.88;8.90;;;10.80;99.90;;;;;;4957978;28;90581;-33
2023/10/24 01:58:01;;;;;;;13.73;8.20;;;10.90;99.90;;;;;;4959396;28;89432;-30
2023/10/24 02:00:27;;;;;;;15.05;8.52;;;10.90;99.90;;;;;;4961329;28;90262;-33
2023/10/24 02:02:53;;;;;;;14.77;9.57;;;10.90;99.90;;;;;;4961158;28;89831;-32
2023/10/24 02:05:19;;;;;;;13.27;10.27;;;10.90;99.90;;;;;;4961022;28;89902;-32
2023/10/24 02:07:45;;;;;;;12.77;9.63;;;10.80;99.90;;;;;;4960543;28;89236;-32
2023/10/24 02:10:10;;;;;;;12.57;10.52;;;10.80;99.90;;;;;;4962133;28;88727;-30
2023/10/24 02:12:36;;;;;;;16.05;10.38;;;10.80;99.90;;;;;;4960589;28;90799;-31
2023/10/24 02:15:04;;;;;;;13.77;8.15;;;10.80;99.90;;;;;;4960026;28;90049;-31
2023/10/24 02:17:29;;;;;;;12.43;8.32;;;10.80;99.90;;;;;;4960721;28;90015;-32
2023/10/24 02:19:55;;;;;;;13.00;8.85;;;10.90;99.90;;;;;;4956219;28;90757;-32
2023/10/24 02:22:21;;;;;;;12.82;8.18;;;10.90;99.90;;;;;;4953764;28;89981;-31
2023/10/24 02:24:46;;;;;;;12.93;9.90;;;10.90;99.90;;;;;;4960277;28;89450;-30
2023/10/24 02:27:12;;;;;;;12.85;8.63;;;11.00;99.90;;;;;;4962010;28;89676;-33
2023/10/24 02:29:37;;;;;;;12.63;9.63;;;10.90;99.90;;;;;;4959826;28;90162;-32
2023/10/24 02:32:03;;;;;;;14.27;9.35;;;11.00;99.90;;;;;;4961399;28;89449;-32
2023/10/24 02:34:29;;;;;;;13.20;8.98;;;10.90;99.90;;;;;;4961300;28;89389;-30
2023/10/24 02:36:54;;;;;;;11.75;9.27;;;10.90;99.90;;;;;;4949471;28;89706;-33
2023/10/24 02:39:20;;;;;;;13.98;9.75;;;10.90;99.90;;;;;;4959636;28;90272;-32
2023/10/24 02:41:46;;;;;;;18.23;11.30;;;11.00;99.90;;;;;;4959851;28;89737;-32
2023/10/24 02:44:12;;;;;;;14.02;10.55;;;11.00;99.90;;;;;;4960514;28;89732;-32
2023/10/24 02:46:37;;;;;;;12.75;9.10;;;10.90;99.90;;;;;;4960423;28;88375;-32
2023/10/24 02:49:03;;;;;;;13.32;9.98;;;11.00;99.90;;;;;;4955408;28;90036;-31
2023/10/24 02:51:29;;;;;;;13.43;9.15;;;10.90;99.90;;;;;;4952619;28;89951;-33
2023/10/24 02:53:54;;;;;;;12.82;9.73;;;11.00;99.90;;;;;;4960376;28;89746;-31
2023/10/24 02:56:20;;;;;;;17.23;10.10;;;11.00;99.90;;;;;;4960674;28;88815;-33
2023/10/24 02:58:45;;;;;;;10.32;8.18;;;11.00;99.90;;;;;;4959211;28;90138;-33
2023/10/24 03:01:11;;;;;;;12.93;10.60;;;11.00;99.90;;;;;;4960841;28;89843;-30
2023/10/24 03:03:37;;;;;;;13.95;9.93;;;11.10;99.90;;;;;;4959523;28;90634;-32
2023/10/24 03:06:16;;;;;;;19.33;9.77;;;11.00;99.90;;;;;;4959789;28;89612;-31
2023/10/24 03:08:42;;;;;;;15.98;10.98;;;11.00;99.90;;;;;;4960136;28;89625;-31
2023/10/24 03:11:07;;;;;;;11.52;10.23;;;11.00;99.90;;;;;;4959880;28;89441;-30
2023/10/24 03:13:33;;;;;;;16.15;10.52;;;11.00;99.90;;;;;;4958932;28;90376;-33
2023/10/24 03:16:05;;;;;;;16.67;10.52;;;11.00;99.90;;;;;;4959739;28;88698;-32
2023/10/24 03:18:33;;;;;;;16.75;11.77;;;11.20;99.90;;;;;;4958937;28;90122;-32
2023/10/24 03:21:03;;;;;;;12.45;9.65;;;11.10;99.90;;;;;;4959581;28;89880;-31
2023/10/24 03:23:28;;;;;;;16.83;8.60;;;11.10;99.90;;;;;;4949379;28;89179;-31
2023/10/24 03:25:54;;;;;;;20.25;10.98;;;11.10;99.90;;;;;;4959946;28;88505;-31
2023/10/24 03:28:20;;;;;;;13.60;10.15;;;11.10;99.90;;;;;;4957029;28;90753;-30
2023/10/24 03:30:48;;;;;;;12.90;9.20;;;11.00;99.90;;;;;;4958560;28;90789;-33
2023/10/24 03:33:13;;;;;;;17.15;9.02;;;11.00;99.90;;;;;;4958902;28;92060;-32
2023/10/24 03:35:39;;;;;;;16.58;8.63;;;11.00;99.90;;;;;;4960741;28;87919;-30
2023/10/24 03:38:05;;;;;;;14.10;9.32;;;11.00;99.90;;;;;;4959355;28;90215;-32
2023/10/24 03:40:30;;;;;;;12.82;8.65;;;11.00;99.90;;;;;;4959603;28;89752;-31
2023/10/24 03:42:56;;;;;;;13.68;11.15;;;11.00;99.90;;;;;;4958796;28;89286;-31
2023/10/24 03:45:21;;;;;;;14.82;10.18;;;11.00;99.90;;;;;;4959777;28;87669;-31
2023/10/24 03:47:52;;;;;;;17.55;11.93;;;11.00;99.90;;;;;;4959030;28;90141;-30
2023/10/24 03:50:18;;;;;;;14.20;11.30;;;11.00;99.90;;;;;;4959540;28;90179;-31
2023/10/24 03:52:44;;;;;;;13.35;8.27;;;11.00;99.90;;;;;;4957661;28;88136;-31
2023/10/24 03:55:11;;;;;;;10.43;8.48;;;11.00;99.90;;;;;;4959602;28;90310;-30
2023/10/24 03:57:40;;;;;;;10.82;8.20;;;11.00;99.90;;;;;;4958213;28;88897;-34
2023/10/24 04:00:10;;;;;;;18.02;10.90;;;11.10;99.90;;;;;;4960670;28;90219;-32
2023/10/24 04:02:36;;;;;;;13.38;10.80;;;11.10;99.90;;;;;;4958216;28;89910;-31
2023/10/24 04:05:03;;;;;;;15.00;12.77;;;11.10;99.90;;;;;;4959218;28;89741;-31
2023/10/24 04:07:29;;;;;;;10.95;8.60;;;11.10;99.90;;;;;;4957492;28;89716;-29
2023/10/24 04:09:56;;;;;;;13.95;9.90;;;11.10;99.90;;;;;;4959744;28;90217;-32
2023/10/24 04:12:22;;;;;;;16.63;12.07;;;11.10;99.90;;;;;;4959395;28;91317;-31
2023/10/24 04:14:47;;;;;;;19.20;11.82;;;11.10;99.90;;;;;;4958557;28;88468;-31
2023/10/24 04:17:13;;;;;;;15.25;11.73;;;11.10;99.90;;;;;;4957958;28;89760;-34
2023/10/24 04:19:38;;;;;;;19.58;11.55;;;11.10;99.90;;;;;;4957899;28;90447;-32
2023/10/24 04:22:04;;;;;;;17.75;11.98;;;11.20;99.90;;;;;;4958088;28;89371;-32
2023/10/24 04:24:29;;;;;;;15.35;11.05;;;11.20;99.90;;;;;;4958584;28;88431;-31
2023/10/24 04:26:55;;;;;;;18.58;11.27;;;11.30;99.90;;;;;;4958115;28;90400;-31
2023/10/24 04:29:21;;;;;;;15.32;10.70;;;11.30;99.90;;;;;;4958784;28;90784;-32
2023/10/24 04:31:47;;;;;;;17.58;11.15;;;11.20;99.90;;;;;;4957023;28;89462;-31
2023/10/24 04:34:13;;;;;;;11.82;10.18;;;11.30;99.90;;;;;;4959345;28;88015;-31
2023/10/24 04:36:39;;;;;;;14.05;8.75;;;11.20;99.90;;;;;;4958752;28;88673;-30
2023/10/24 04:39:05;;;;;;;15.98;10.63;;;11.30;99.90;;;;;;4959555;28;89578;-31
2023/10/24 04:41:30;;;;;;;9.85;7.90;;;11.30;99.90;;;;;;4957740;28;89480;-32
2023/10/24 04:43:56;;;;;;;11.52;8.57;;;11.30;99.90;;;;;;4958500;28;89062;-30
2023/10/24 04:46:21;;;;;;;11.18;7.97;;;11.30;99.90;;;;;;4958760;28;89568;-33
2023/10/24 04:48:47;;;;;;;11.15;8.23;;;11.30;99.90;;;;;;4959304;28;89924;-33
2023/10/24 04:51:13;;;;;;;11.10;8.80;;;11.30;99.90;;;;;;4958526;28;89937;-32
2023/10/24 04:53:39;;;;;;;12.85;8.65;;;11.30;99.90;;;;;;4958547;28;88295;-30
2023/10/24 04:56:04;;;;;;;17.20;8.60;;;11.30;99.90;;;;;;4958394;28;90168;-32
2023/10/24 04:58:30;;;;;;;10.82;8.13;;;11.30;99.90;;;;;;4959443;28;90115;-32
2023/10/24 05:00:56;;;;;;;12.77;8.25;;;11.30;99.90;;;;;;4957701;28;89129;-34
2023/10/24 05:03:21;;;;;;;10.27;8.23;;;11.30;99.90;;;;;;4958614;28;89323;-33
2023/10/24 05:05:47;;;;;;;9.68;8.68;;;11.30;99.90;;;;;;4944866;28;90203;-34
2023/10/24 05:08:13;;;;;;;15.95;8.75;;;11.30;99.90;;;;;;4950682;28;89937;-33
2023/10/24 05:10:39;;;;;;;8.70;7.13;;;11.30;99.90;;;;;;4958117;28;90496;-30
2023/10/24 05:13:04;;;;;;;13.15;8.40;;;11.30;99.90;;;;;;4959127;28;87843;-31
2023/10/24 05:15:31;;;;;;;8.75;7.03;;;11.30;99.90;;;;;;4958605;28;89793;-30
2023/10/24 05:17:57;;;;;;;11.90;7.97;;;11.30;99.90;;;;;;4957827;28;90473;-30
2023/10/24 05:20:23;;;;;;;8.82;6.25;;;11.20;99.90;;;;;;4958062;28;89783;-32
2023/10/24 05:22:48;;;;;;;9.15;6.78;;;11.30;99.90;;;;;;4958429;28;89457;-33
2023/10/24 05:25:14;;;;;;;7.05;6.35;;;11.20;99.90;;;;;;4941214;28;89421;-33
2023/10/24 05:27:40;;;;;;;9.27;7.93;;;11.20;99.90;;;;;;4958188;28;89733;-30
2023/10/24 05:30:06;;;;;;;9.43;7.40;;;11.20;99.90;;;;;;4952649;28;89669;-32
2023/10/24 05:32:31;;;;;;;7.45;5.47;;;11.20;99.90;;;;;;4958288;28;90027;-31
2023/10/24 05:34:57;;;;;;;10.05;8.48;;;11.20;99.90;;;;;;4961502;28;90240;-32
2023/10/24 05:37:23;;;;;;;8.60;6.78;;;11.20;99.90;;;;;;4950869;28;90081;-32
2023/10/24 05:39:48;;;;;;;9.43;7.13;;;11.20;99.90;;;;;;4962129;28;89398;-33
2023/10/24 05:42:14;;;;;;;12.63;6.22;;;11.10;99.90;;;;;;4961661;28;88983;-30
2023/10/24 05:44:39;;;;;;;10.02;8.32;;;11.20;99.90;;;;;;4961426;28;89959;-32
2023/10/24 05:47:05;;;;;;;7.57;6.57;;;11.20;99.90;;;;;;4961402;28;89601;-31
2023/10/24 05:49:32;;;;;;;7.22;6.35;;;11.10;99.90;;;;;;4961901;28;89343;-35
2023/10/24 05:51:57;;;;;;;10.25;7.13;;;11.20;99.90;;;;;;5014430;22;88379;-32
2023/10/24 05:54:23;;;;;;;7.97;5.97;;;11.10;99.90;;;;;;4987119;28;89348;-31
2023/10/24 05:56:48;;;;;;;7.85;6.53;;;11.10;99.90;;;;;;4996544;28;90527;-31
2023/10/24 05:59:14;;;;;;;11.63;7.65;;;11.10;99.90;;;;;;4997735;28;90198;-32
2023/10/24 06:01:39;;;;;;;9.25;7.05;;;11.10;99.90;;;;;;4998472;28;88323;-34
2023/10/24 06:04:05;;;;;;;8.25;6.57;;;11.10;99.90;;;;;;4999062;28;89897;-31
2023/10/24 06:06:31;;;;;;;9.20;5.95;;;11.10;99.90;;;;;;4998333;28;89614;-32
2023/10/24 06:08:56;;;;;;;6.50;4.97;;;11.10;99.90;;;;;;4998788;28;89373;-31
2023/10/24 06:11:22;;;;;;;8.10;7.15;;;11.10;99.90;;;;;;4997786;28;90271;-30
2023/10/24 06:13:47;;;;;;;9.65;6.18;;;11.10;99.90;;;;;;4991487;28;90682;-31
2023/10/24 06:16:17;;;;;;;9.27;6.68;;;11.10;99.90;;;;;;4979736;28;89297;-33
2023/10/24 06:18:42;;;;;;;8.98;6.43;;;11.10;99.90;;;;;;4990482;28;89559;-31
2023/10/24 06:21:09;;;;;;;7.82;5.93;;;11.10;99.90;;;;;;4979157;28;89831;-32
2023/10/24 06:23:35;;;;;;;6.40;5.70;;;11.10;99.90;;;;;;4987119;28;89986;-31
2023/10/24 06:26:01;;;;;;;7.50;6.80;;;11.10;99.90;;;;;;4984068;28;88555;-32
2023/10/24 06:28:27;;;;;;;7.80;5.63;;;11.10;99.90;;;;;;4988413;28;89643;-33
2023/10/24 06:31:00;;;;;;;8.32;6.05;;;11.10;99.90;;;;;;4998014;28;89612;-33
2023/10/24 06:33:27;;;;;;;9.57;6.50;;;11.10;99.90;;;;;;4997950;28;90847;-30
2023/10/24 06:35:54;;;;;;;8.70;6.70;;;11.20;99.90;;;;;;4996498;28;89700;-30
2023/10/24 06:38:19;;;;;;;11.73;7.10;;;11.20;99.90;;;;;;4997618;28;88774;-30
2023/10/24 06:40:45;;;;;;;7.75;5.78;;;11.20;99.90;;;;;;4997800;28;89028;-30
2023/10/24 06:43:11;;;;;;;7.60;5.88;;;11.20;99.90;;;;;;4979302;28;90092;-30
2023/10/24 06:45:37;;;;;;;8.13;6.97;;;11.20;99.90;;;;;;4995837;28;90480;-33
2023/10/24 06:48:06;;;;;;;10.23;6.88;;;11.20;99.90;;;;;;4998440;28;89312;-33
2023/10/24 06:50:34;;;;;;;9.13;6.07;;;11.20;99.90;;;;;;4998060;28;88859;-33
2023/10/24 06:53:00;;;;;;;6.03;4.63;;;11.20;99.90;;;;;;4997296;28;90777;-29
2023/10/24 06:55:25;;;;;;;10.35;4.88;;;11.20;99.90;;;;;;4997911;28;89838;-33
2023/10/24 06:57:51;;;;;;;7.07;5.47;;;11.20;99.90;;;;;;4997754;28;90325;-34
2023/10/24 07:00:18;;;;;;;6.95;4.60;;;11.20;99.90;;;;;;4997155;28;88761;-35
2023/10/24 07:02:43;;;;;;;6.40;4.82;;;11.20;99.90;;;;;;4991618;28;90340;-32
2023/10/24 07:05:09;;;;;;;5.65;4.85;;;11.20;99.90;;;;;;4990228;28;89370;-31
2023/10/24 07:07:36;;;;;;;8.55;5.57;;;11.20;99.90;;;;;;4992568;28;90452;-30
2023/10/24 07:10:01;;;;;;;8.57;4.90;;;11.20;99.90;;;;;;4994838;28;89026;-34
2023/10/24 07:12:27;;;;;;;5.28;4.40;;;11.20;99.90;;;;;;4978254;28;91095;-31
2023/10/24 07:14:53;;;;;;;9.88;6.20;;;11.20;99.90;;;;;;4978366;28;89323;-30
2023/10/24 07:17:19;;;;;;;7.75;6.28;;;11.20;99.90;;;;;;4988078;28;89178;-32
2023/10/24 07:19:46;;;;;;;10.30;6.40;;;11.20;99.90;;;;;;4996915;28;90183;-31
2023/10/24 07:22:11;;;;;;;6.22;5.32;;;11.20;99.90;;;;;;4997602;28;90005;-31
2023/10/24 07:24:37;;;;;;;6.85;5.40;;;11.20;99.90;;;;;;4996541;28;89743;-32
2023/10/24 07:27:03;;;;;;;6.53;5.32;;;11.20;99.90;;;;;;4997534;28;89776;-31
2023/10/24 07:29:29;;;;;;;7.93;4.90;;;11.20;99.90;;;;;;4997300;28;89085;-32
2023/10/24 07:31:55;;;;;;;7.57;6.35;;;11.20;99.90;;;;;;4990599;28;89980;-34
2023/10/24 07:34:21;;;;;;;6.22;5.53;;;11.20;99.90;;;;;;4996807;28;90676;-33
2023/10/24 07:36:46;;;;;;;6.53;5.82;;;11.20;99.90;;;;;;4995191;28;90699;-30
2023/10/24 07:39:15;;;;;;;12.50;6.00;;;11.30;99.90;;;;;;4995353;28;89038;-31
2023/10/24 07:41:41;;;;;;;8.82;6.28;;;11.30;99.90;;;;;;4997510;28;89685;-33
2023/10/24 07:44:06;;;;;;;10.15;6.68;;;11.30;99.90;;;;;;4996865;28;90020;-32
2023/10/24 07:46:32;;;;;;;7.30;6.00;;;11.30;99.90;;;;;;4997025;28;89600;-31
2023/10/24 07:48:58;;;;;;;8.77;6.68;;;11.30;99.90;;;;;;4997041;28;90122;-31
2023/10/24 07:51:27;;;;;;;9.85;6.53;;;11.30;99.90;;;;;;4997801;28;89413;-31
2023/10/24 07:53:54;;;;;;;9.05;6.32;;;11.30;99.90;;;;;;4996511;28;89732;-34
2023/10/24 07:56:19;;;;;;;6.68;5.38;;;11.30;99.90;;;;;;4995498;28;89056;-33
2023/10/24 07:58:45;;;;;;;8.30;6.00;;;11.30;99.90;;;;;;4994907;28;89468;-33
2023/10/24 08:01:11;;;;;;;8.10;7.20;;;11.20;99.90;;;;;;4997090;28;90098;-30
2023/10/24 08:03:36;;;;;;;10.65;9.60;;;11.30;99.90;;;;;;4962134;28;89656;-31
2023/10/24 08:06:03;;;;;;;7.25;6.15;;;11.30;99.90;;;;;;4982547;28;88729;-31
2023/10/24 08:08:29;;;;;;;6.90;6.22;;;11.30;99.90;;;;;;4983373;28;90322;-29
2023/10/24 08:10:55;;;;;;;8.93;5.32;;;11.30;99.90;;;;;;4995698;28;90042;-32
2023/10/24 08:13:21;;;;;;;8.18;5.32;;;11.30;99.90;;;;;;4980131;28;88842;-34
2023/10/24 08:15:50;;;;;;;7.88;5.78;;;11.30;99.90;;;;;;4987564;28;89388;-32
2023/10/24 08:18:15;;;;;;;10.93;6.38;;;11.30;99.90;;;;;;4983117;28;88556;-33
2023/10/24 08:20:41;;;;;;;11.07;7.38;;;11.30;99.90;;;;;;4996624;28;90175;-33
2023/10/24 08:23:07;;;;;;;10.48;6.20;;;11.30;99.90;;;;;;4978352;28;91137;-31
2023/10/24 08:25:32;;;;;;;9.20;6.63;;;11.40;99.90;;;;;;4976817;28;90429;-30
2023/10/24 08:27:58;;;;;;;8.13;6.43;;;11.30;99.90;;;;;;4994246;28;88464;-32
2023/10/24 08:30:23;;;;;;;8.23;6.90;;;11.30;99.90;;;;;;4996294;28;90156;-32
2023/10/24 08:32:49;;;;;;;10.13;7.57;;;11.30;99.90;;;;;;4994799;28;90566;-32
2023/10/24 08:35:15;;;;;;;7.60;6.25;;;11.30;99.90;;;;;;4995271;28;89269;-33
2023/10/24 08:37:40;;;;;;;9.95;5.93;;;11.30;99.90;;;;;;4993402;28;90634;-34
2023/10/24 08:40:06;;;;;;;8.35;6.28;;;11.30;99.90;;;;;;4995698;28;90413;-31
2023/10/24 08:42:33;;;;;;;7.18;6.20;;;11.30;99.90;;;;;;4994315;28;90418;-30
2023/10/24 08:44:59;;;;;;;13.65;10.80;;;11.40;99.90;;;;;;4996479;28;89150;-32
2023/10/24 08:47:27;;;;;;;11.70;7.15;;;11.30;99.90;;;;;;4994991;28;90111;-30
2023/10/24 08:49:54;;;;;;;10.20;7.63;;;11.40;99.90;;;;;;4995448;28;90019;-32
2023/10/24 08:52:20;;;;;;;15.20;7.63;;;11.40;99.90;;;;;;4995043;28;90089;-33
2023/10/24 08:54:45;;;;;;;9.45;6.05;;;11.40;99.90;;;;;;4995852;28;90260;-31
2023/10/24 08:57:13;;;;;;;10.38;6.45;;;11.40;99.90;;;;;;4990313;28;89662;-30
2023/10/24 08:59:40;;;;;;;11.60;10.33;;;11.40;99.90;;;;;;4979260;28;90272;-30
2023/10/24 09:02:10;;;;;;;11.93;10.50;;;11.40;99.90;;;;;;4995311;28;90003;-31
2023/10/24 09:04:38;;;;;;;7.85;6.10;;;11.50;99.90;;;;;;4978502;28;89985;-32
2023/10/24 09:07:04;;;;;;;9.55;5.78;;;11.50;99.90;;;;;;4988393;28;89858;-30
2023/10/24 09:09:29;;;;;;;8.73;6.22;;;11.50;99.90;;;;;;4999866;28;90244;-32
2023/10/24 09:11:58;;;;;;;7.72;4.90;;;11.50;99.90;;;;;;4998597;28;90663;-32
2023/10/24 09:14:25;;;;;;;6.05;4.97;;;11.50;99.90;;;;;;4999477;28;90272;-32
2023/10/24 09:16:54;;;;;;;13.40;9.32;;;11.50;99.90;;;;;;4998684;28;89290;-32
2023/10/24 09:19:21;;;;;;;10.73;5.20;;;11.60;99.90;;;;;;4999054;28;89634;-33
2023/10/24 09:21:49;;;;;;;7.13;5.28;;;11.60;99.90;;;;;;4986462;28;89640;-33
2023/10/24 09:24:15;;;;;;;7.50;6.60;;;11.50;99.90;;;;;;4999021;28;89064;-32
2023/10/24 09:26:50;;;;;;;7.45;5.85;;;11.50;99.90;;;;;;4999150;28;88937;-33
2023/10/24 09:29:17;;;;;;;9.13;5.45;;;11.60;99.90;;;;;;4998912;28;89842;-31
2023/10/24 09:31:45;;;;;;;10.90;8.23;;;11.60;99.90;;;;;;4999529;28;89789;-34
2023/10/24 09:34:10;;;;;;;6.53;5.65;;;11.60;99.90;;;;;;4998714;28;89710;-32
2023/10/24 09:36:36;;;;;;;7.43;5.18;;;11.70;99.90;;;;;;4998143;28;89394;-31
2023/10/24 09:39:03;;;;;;;5.18;4.13;;;11.60;99.90;;;;;;4998040;28;90245;-33
2023/10/24 09:41:29;;;;;;;8.93;4.95;;;11.70;99.90;;;;;;4999268;28;90622;-32
2023/10/24 09:44:03;;;;;;;7.72;6.70;;;11.70;99.90;;;;;;4997641;28;89816;-34
2023/10/24 09:46:29;;;;;;;9.05;5.85;;;11.70;99.90;;;;;;4998731;28;89036;-32
2023/10/24 09:48:56;;;;;;;5.32;4.53;;;11.70;99.90;;;;;;4997489;28;89851;-32
2023/10/24 09:51:22;;;;;;;5.88;4.00;;;11.70;99.90;;;;;;4998654;28;89354;-32
2023/10/24 09:53:51;;;;;;;6.85;5.28;;;11.70;99.90;;;;;;4997797;28;88916;-33
2023/10/24 09:56:19;;;;;;;5.53;5.03;;;11.70;99.90;;;;;;4998957;28;89840;-33
2023/10/24 09:58:45;;;;;;;6.25;5.63;;;11.70;99.90;;;;;;4996651;28;90548;-32
2023/10/24 10:01:12;;;;;;;5.75;4.40;;;11.70;99.90;;;;;;4998168;28;91413;-31
2023/10/24 10:03:38;;;;;;;9.85;4.78;;;11.60;99.90;;;;;;4989979;28;91419;-31
2023/10/24 10:06:08;;;;;;;4.35;3.33;;;11.70;99.90;;;;;;4979385;28;90571;-31
2023/10/24 10:08:39;;;;;;;6.32;4.40;;;11.70;99.90;;;;;;4992524;28;90542;-32
2023/10/24 10:11:06;;;;;;;5.95;3.83;;;11.70;99.90;;;;;;4998550;28;91067;-32
2023/10/24 10:13:51;;;;;;;9.38;7.03;;;11.60;99.90;;;;;;4997919;28;89463;-34
2023/10/24 10:16:28;;;;;;;7.32;6.72;;;11.60;99.90;;;;;;4998640;28;87589;-32
2023/10/24 10:19:13;;;;;;;5.15;4.10;;;11.70;99.90;;;;;;4997135;28;88897;-31
2023/10/24 10:22:04;;;;;;;3.95;3.55;;;11.70;99.90;;;;;;4979320;28;89927;-32
2023/10/24 10:25:15;;;;;;;5.15;4.65;;;11.70;99.90;;;;;;4935818;28;89818;-32
2023/10/24 10:28:17;;;;;;;4.82;3.20;;;11.60;99.90;;;;;;4991953;28;89038;-33
2023/10/24 10:31:03;;;;;;;5.90;4.45;;;11.60;99.90;;;;;;4992082;28;90202;-33
2023/10/24 10:33:29;;;;;;;3.63;3.20;;;11.70;99.90;;;;;;4988408;28;89900;-31
2023/10/24 10:36:02;;;;;;;8.82;4.43;;;11.70;99.90;;;;;;4997915;28;88491;-30
2023/10/24 10:38:49;;;;;;;6.75;5.50;;;11.70;99.90;;;;;;4998370;28;89473;-33
2023/10/24 10:41:21;;;;;;;5.20;3.55;;;11.70;99.90;;;;;;4998968;28;90015;-33
2023/10/24 10:43:47;;;;;;;5.65;5.00;;;11.70;99.90;;;;;;4983173;28;89355;-33
2023/10/24 10:46:22;;;;;;;6.22;5.18;;;11.70;99.90;;;;;;4979456;28;89573;-33
2023/10/24 10:48:48;;;;;;;4.63;3.95;;;11.70;99.90;;;;;;4980166;28;88977;-33
2023/10/24 10:51:22;;;;;;;5.55;4.25;;;11.70;99.90;;;;;;4988225;28;90156;-31
2023/10/24 10:53:55;;;;;;;6.63;5.75;;;11.70;99.90;;;;;;4982269;28;91165;-33
2023/10/24 10:56:30;;;;;;;4.97;4.53;;;11.70;99.90;;;;;;4979949;28;90450;-33
2023/10/24 10:59:09;;;;;;;6.70;5.00;;;11.80;99.90;;;;;;4967579;28;88766;-31
2023/10/24 11:02:10;;;;;;;5.95;5.30;;;11.80;99.90;;;;;;4998233;28;90265;-33
2023/10/24 11:04:35;;;;;;;4.97;4.00;;;11.80;99.90;;;;;;4962726;28;89275;-31
2023/10/24 11:07:06;;;;;;;7.82;4.25;;;11.80;99.90;;;;;;4997717;28;90212;-29
2023/10/24 11:09:37;;;;;;;6.03;4.70;;;11.80;99.90;;;;;;4998240;28;87885;-30
2023/10/24 11:12:21;;;;;;;7.45;3.53;;;11.80;99.90;;;;;;4997880;28;90352;-33
2023/10/24 11:15:16;;;;;;;5.55;3.80;;;11.90;99.90;;;;;;4981219;28;88817;-32
2023/10/24 11:17:43;;;;;;;5.25;3.75;;;12.00;99.90;;;;;;4991110;28;89286;-30
2023/10/24 11:20:10;;;;;;;6.13;4.80;;;12.00;99.90;;;;;;4984473;28;89180;-33
2023/10/24 11:22:36;;;;;;;7.93;4.88;;;12.10;99.90;;;;;;4996971;28;90893;-34
2023/10/24 11:25:10;;;;;;;6.93;5.25;;;12.20;99.90;;;;;;4997818;28;89151;-34
2023/10/24 11:27:36;;;;;;;5.72;5.00;;;12.10;99.90;;;;;;4996887;28;89602;-32
2023/10/24 11:30:02;;;;;;;7.03;6.35;;;12.20;99.90;;;;;;4995510;28;89262;-31
2023/10/24 11:32:28;;;;;;;6.72;5.22;;;12.20;99.90;;;;;;4985889;28;90609;-32
2023/10/24 11:34:54;;;;;;;8.90;5.70;;;12.30;99.90;;;;;;4976504;28;90009;-33
2023/10/24 11:37:20;;;;;;;8.88;6.25;;;12.30;99.90;;;;;;4989792;28;90119;-33
2023/10/24 11:39:46;;;;;;;7.35;5.30;;;12.40;99.90;;;;;;4986041;28;89296;-31
2023/10/24 11:42:11;;;;;;;6.88;6.15;;;12.40;99.90;;;;;;4993712;28;90404;-31
2023/10/24 11:44:38;;;;;;;7.68;6.10;;;12.50;99.90;;;;;;4993968;28;90682;-32
2023/10/24 11:47:05;;;;;;;7.18;5.63;;;12.60;99.90;;;;;;4993022;28;90862;-32
2023/10/24 11:49:34;;;;;;;8.10;5.47;;;12.60;99.90;;;;;;4994456;28;89687;-34
2023/10/24 11:52:01;;;;;;;11.25;7.15;;;12.70;99.90;;;;;;4990839;28;90279;-32
2023/10/24 11:54:27;;;;;;;9.88;7.45;;;12.70;99.90;;;;;;4996776;28;90073;-29
2023/10/24 11:56:54;;;;;;;8.55;7.18;;;12.70;99.90;;;;;;4993412;28;89608;-31
2023/10/24 11:59:20;;;;;;;7.63;6.70;;;12.70;99.90;;;;;;4993837;28;89189;-34
2023/10/24 12:01:45;;;;;;;11.13;7.63;;;12.70;99.90;;;;;;4989391;28;90476;-32
2023/10/24 12:04:12;;;;;;;14.25;10.80;;;12.70;99.90;;;;;;4977230;28;90667;-34
2023/10/24 12:06:38;;;;;;;11.45;7.38;;;12.70;99.90;;;;;;4976501;28;89621;-33
2023/10/24 12:09:04;;;;;;;7.57;6.32;;;12.70;99.90;;;;;;4984354;28;89965;-32
2023/10/24 12:11:33;;;;;;;9.57;6.30;;;12.70;99.90;;;;;;4996531;28;89125;-32
2023/10/24 12:13:59;;;;;;;11.48;10.38;;;12.70;99.90;;;;;;4996342;28;89755;-32
2023/10/24 12:16:29;;;;;;;11.63;8.25;;;12.70;99.90;;;;;;4979974;28;89839;-32
2023/10/24 12:18:54;;;;;;;10.93;7.32;;;12.70;99.90;;;;;;4986549;28;88438;-31
2023/10/24 12:21:20;;;;;;;13.23;10.63;;;12.70;99.90;;;;;;4979457;28;90099;-32
2023/10/24 12:23:45;;;;;;;12.68;11.32;;;12.70;99.90;;;;;;4985879;28;89997;-32
2023/10/24 12:26:11;;;;;;;9.43;7.15;;;12.70;99.90;;;;;;4995400;28;89077;-30
2023/10/24 12:28:42;;;;;;;8.90;7.45;;;12.70;99.90;;;;;;4987172;28;89862;-31
2023/10/24 12:31:08;;;;;;;13.55;9.15;;;12.80;99.90;;;;;;4963751;28;89745;-34
2023/10/24 12:33:33;;;;;;;10.38;8.82;;;12.80;99.90;;;;;;4986759;28;90447;-32
2023/10/24 12:36:00;;;;;;;8.20;7.28;;;12.80;99.90;;;;;;4976699;28;90399;-31
2023/10/24 12:38:26;;;;;;;8.27;7.15;;;12.80;99.90;;;;;;4985752;28;88349;-35
2023/10/24 12:40:52;;;;;;;10.32;8.52;;;12.80;99.90;;;;;;4979652;28;89675;-32